Time,TemperatureF,DewpointF,PressureIn,WindDirection,WindDirectionDegrees,WindSpeedMPH,WindSpeedGustMPH,Humidity,HourlyPrecipIn,Conditions,Clouds,dailyrainin,SolarRadiationWatts/m^2,SoftwareType,DateUTC
2013-07-10 00:33:00,71.0,28.0,-100.00,WSW,251,4.0,11.0,20,0.00,,,0.00,0.000000,,2013-07-10 06:33:00,
2013-07-10 00:42:00,71.0,28.0,-100.00,WSW,251,4.0,11.0,20,0.00,,,0.00,0.000000,,2013-07-10 06:42:00,
2013-07-10 00:52:00,71.0,28.0,-100.00,WSW,251,4.0,11.0,20,0.00,,,0.00,0.000000,,2013-07-10 06:52:00,
2013-07-10 01:33:00,68.0,28.0,-100.00,ESE,104,0.0,4.0,22,-99.99,,,0.00,0.000000,,2013-07-10 07:33:00,
2013-07-10 01:43:00,68.0,28.0,-100.00,ESE,104,0.0,4.0,22,-99.99,,,0.00,0.000000,,2013-07-10 07:43:00,
2013-07-10 01:53:00,68.0,28.0,-100.00,ESE,104,0.0,4.0,22,-99.99,,,0.00,0.000000,,2013-07-10 07:53:00,
2013-07-10 02:33:00,68.0,30.0,-100.00,North,4,0.0,4.0,24,-99.99,,,0.00,0.000000,,2013-07-10 08:33:00,
2013-07-10 02:42:00,68.0,30.0,-100.00,North,4,0.0,4.0,24,-99.99,,,0.00,0.000000,,2013-07-10 08:42:00,
2013-07-10 03:33:00,66.0,28.0,-100.00,SE,129,3.0,4.0,24,-99.99,,,0.00,0.000000,,2013-07-10 09:33:00,
2013-07-10 03:43:00,66.0,28.0,-100.00,SE,129,3.0,4.0,24,-99.99,,,0.00,0.000000,,2013-07-10 09:43:00,
2013-07-10 04:01:00,66.0,28.0,-100.00,SE,129,3.0,4.0,24,-99.99,,,0.00,0.000000,,2013-07-10 10:01:00,
2013-07-10 04:32:00,65.0,30.0,-100.00,SSW,201,3.0,7.0,27,-99.99,,,0.00,0.000000,,2013-07-10 10:32:00,
2013-07-10 04:51:00,-999.0,-99.9,-100.00,SSW,201,3.0,7.0,-999,-99.99,,,-99.99,0.000000,,2013-07-10 10:51:00,
2013-07-10 05:00:00,-999.0,-99.9,-100.00,SSW,201,3.0,7.0,-999,-99.99,,,-99.99,0.000000,,2013-07-10 11:00:00,
2013-07-10 09:34:00,71.0,34.0,-100.00,ESE,121,5.0,6.0,26,-99.99,,,0.00,422.000000,,2013-07-10 15:34:00,
2013-07-10 10:33:00,73.0,40.0,-100.00,ESE,116,5.0,7.0,30,-99.99,,,0.00,612.000000,,2013-07-10 16:33:00,
2013-07-10 10:44:00,73.0,40.0,-100.00,ESE,116,5.0,7.0,30,-99.99,,,0.00,612.000000,,2013-07-10 16:44:00,
2013-07-10 10:53:00,73.0,40.0,-100.00,ESE,116,5.0,7.0,30,-99.99,,,0.00,612.000000,,2013-07-10 16:53:00,
2013-07-10 11:01:00,73.0,40.0,-100.00,ESE,116,5.0,7.0,30,-99.99,,,0.00,612.000000,,2013-07-10 17:01:00,
2013-07-10 11:32:00,78.0,39.0,-100.00,NNE,33,4.0,8.0,25,0.00,,,0.00,783.000000,,2013-07-10 17:32:00,
2013-07-10 11:43:00,78.0,39.0,-100.00,NNE,33,4.0,8.0,25,0.00,,,0.00,783.000000,,2013-07-10 17:43:00,
2013-07-10 11:53:00,78.0,39.0,-100.00,NNE,33,4.0,8.0,25,0.00,,,0.00,783.000000,,2013-07-10 17:53:00,
2013-07-10 12:02:00,78.0,39.0,-100.00,NNE,33,4.0,8.0,25,0.00,,,0.00,783.000000,,2013-07-10 18:02:00,
2013-07-10 12:32:00,82.0,41.0,-100.00,NNW,341,4.0,7.0,23,0.00,,,0.00,913.000000,,2013-07-10 18:32:00,
2013-07-10 12:44:00,82.0,41.0,-100.00,NNW,341,4.0,7.0,23,0.00,,,0.00,913.000000,,2013-07-10 18:44:00,
2013-07-10 12:53:00,82.0,41.0,-100.00,NNW,341,4.0,7.0,23,0.00,,,0.00,913.000000,,2013-07-10 18:53:00,
2013-07-10 13:01:00,82.0,41.0,-100.00,NNW,341,4.0,7.0,23,0.00,,,0.00,913.000000,,2013-07-10 19:01:00,
2013-07-10 13:32:00,84.0,40.0,-100.00,NW,315,6.0,9.0,21,0.00,,,0.00,992.000000,,2013-07-10 19:32:00,
2013-07-10 13:42:00,84.0,40.0,-100.00,NW,315,6.0,9.0,21,0.00,,,0.00,992.000000,,2013-07-10 19:42:00,
2013-07-10 13:53:00,84.0,40.0,-100.00,NW,315,6.0,9.0,21,0.00,,,0.00,992.000000,,2013-07-10 19:53:00,
2013-07-10 14:01:00,84.0,40.0,-100.00,NW,315,6.0,9.0,21,0.00,,,0.00,992.000000,,2013-07-10 20:01:00,
2013-07-10 14:32:00,88.0,38.0,-100.00,North,351,4.0,9.0,17,0.00,,,0.00,810.000000,,2013-07-10 20:32:00,
2013-07-10 14:43:00,88.0,38.0,-100.00,North,351,4.0,9.0,17,0.00,,,0.00,810.000000,,2013-07-10 20:43:00,
2013-07-10 14:52:00,88.0,38.0,-100.00,North,351,4.0,9.0,17,0.00,,,0.00,810.000000,,2013-07-10 20:52:00,
2013-07-10 15:01:00,88.0,38.0,-100.00,North,351,4.0,9.0,17,0.00,,,0.00,810.000000,,2013-07-10 21:01:00,
2013-07-10 15:32:00,88.0,35.0,-100.00,NW,307,7.0,11.0,15,0.00,,,0.00,831.000000,,2013-07-10 21:32:00,
2013-07-10 15:42:00,88.0,35.0,-100.00,NW,307,7.0,11.0,15,0.00,,,0.00,831.000000,,2013-07-10 21:42:00,
2013-07-10 15:52:00,88.0,35.0,-100.00,NW,307,7.0,11.0,15,0.00,,,0.00,831.000000,,2013-07-10 21:52:00,
2013-07-10 16:01:00,88.0,35.0,-100.00,NW,307,7.0,11.0,15,0.00,,,0.00,831.000000,,2013-07-10 22:01:00,
2013-07-10 17:32:00,86.0,31.0,-100.00,West,263,4.0,22.0,14,-99.99,,,0.00,580.000000,,2013-07-10 23:32:00,
2013-07-10 17:43:00,86.0,31.0,-100.00,West,263,4.0,22.0,14,-99.99,,,0.00,580.000000,,2013-07-10 23:43:00,
2013-07-10 17:52:00,86.0,31.0,-100.00,West,263,4.0,22.0,14,-99.99,,,0.00,580.000000,,2013-07-10 23:52:00,
2013-07-10 18:01:00,86.0,31.0,-100.00,West,263,4.0,22.0,14,-99.99,,,0.00,580.000000,,2013-07-11 00:01:00,
2013-07-10 18:32:00,87.0,35.0,-100.00,West,273,14.0,21.0,16,0.00,,,0.00,349.000000,,2013-07-11 00:32:00,
2013-07-10 18:42:00,87.0,35.0,-100.00,West,273,14.0,21.0,16,0.00,,,0.00,349.000000,,2013-07-11 00:42:00,
2013-07-10 18:52:00,87.0,35.0,-100.00,West,273,14.0,21.0,16,0.00,,,0.00,349.000000,,2013-07-11 00:52:00,
2013-07-10 19:01:00,87.0,35.0,-100.00,West,273,14.0,21.0,16,0.00,,,0.00,349.000000,,2013-07-11 01:01:00,
2013-07-10 19:32:00,88.0,36.0,-100.00,North,8,6.0,20.0,16,0.00,,,0.00,534.000000,,2013-07-11 01:32:00,
2013-07-10 19:43:00,88.0,36.0,-100.00,North,8,6.0,20.0,16,0.00,,,0.00,534.000000,,2013-07-11 01:43:00,
2013-07-10 19:52:00,88.0,36.0,-100.00,North,8,6.0,20.0,16,0.00,,,0.00,534.000000,,2013-07-11 01:52:00,
2013-07-10 20:02:00,88.0,36.0,-100.00,North,8,6.0,20.0,16,0.00,,,0.00,534.000000,,2013-07-11 02:02:00,
2013-07-10 20:32:00,86.0,38.0,-100.00,WNW,290,6.0,9.0,18,0.00,,,0.00,274.000000,,2013-07-11 02:32:00,
2013-07-10 20:43:00,86.0,38.0,-100.00,WNW,290,6.0,9.0,18,0.00,,,0.00,274.000000,,2013-07-11 02:43:00,
2013-07-10 20:53:00,86.0,38.0,-100.00,WNW,290,6.0,9.0,18,0.00,,,0.00,274.000000,,2013-07-11 02:53:00,
2013-07-10 21:33:00,79.0,37.0,-100.00,West,269,9.0,15.0,22,-99.99,,,0.00,73.000000,,2013-07-11 03:33:00,
2013-07-10 21:42:00,79.0,37.0,-100.00,West,269,9.0,15.0,22,-99.99,,,0.00,73.000000,,2013-07-11 03:42:00,
2013-07-10 21:52:00,79.0,37.0,-100.00,West,269,9.0,15.0,22,-99.99,,,0.00,73.000000,,2013-07-11 03:52:00,
2013-07-10 22:01:00,79.0,37.0,-100.00,West,269,9.0,15.0,22,-99.99,,,0.00,73.000000,,2013-07-11 04:01:00,
2013-07-10 22:32:00,78.0,40.0,-100.00,West,274,11.0,16.0,26,-99.99,,,0.00,6.000000,,2013-07-11 04:32:00,
2013-07-10 22:42:00,78.0,40.0,-100.00,West,274,11.0,16.0,26,-99.99,,,0.00,6.000000,,2013-07-11 04:42:00,
2013-07-10 23:32:00,76.0,42.0,-100.00,West,266,14.0,21.0,30,-99.99,,,0.00,0.000000,,2013-07-11 05:32:00,
2013-07-10 23:43:00,76.0,42.0,-100.00,West,266,14.0,21.0,30,-99.99,,,0.00,0.000000,,2013-07-11 05:43:00,
2013-07-10 23:52:00,76.0,42.0,-100.00,West,266,14.0,21.0,30,-99.99,,,0.00,0.000000,,2013-07-11 05:52:00,